Time;durP1;ratioP1;P1;durP2;ratioP2;P2;SDS_P1;SDS_P2;PMS_P1;PMS_P2;Temp;Humidity;BMP_temperature;BMP_pressure;BME280_temperature;BME280_humidity;BME280_pressure;Samples;Min_cycle;Max_cycle;Signal;HPM_P1;HPM_P2
2022/03/17 00:01:37;;;;;;;31.27;15.27;;;;;;;4.99;100.00;101473.38;7393011;19;20458;-53
2022/03/17 00:04:08;;;;;;;38.53;16.60;;;;;;;4.98;100.00;101466.47;7389253;19;20404;-52
2022/03/17 00:06:38;;;;;;;33.87;16.10;;;;;;;5.03;100.00;101475.38;7393276;19;20398;-51
2022/03/17 00:09:07;;;;;;;41.37;18.33;;;;;;;4.97;100.00;101480.91;7388243;19;20418;-55
2022/03/17 00:11:40;;;;;;;34.27;15.90;;;;;;;5.00;100.00;101468.38;7395996;19;20410;-51
2022/03/17 00:14:09;;;;;;;34.83;15.83;;;;;;;5.05;100.00;101465.25;7388038;19;20422;-51
2022/03/17 00:16:40;;;;;;;36.03;15.60;;;;;;;4.96;100.00;101474.03;7391449;19;20455;-51
2022/03/17 00:19:10;;;;;;;36.40;16.67;;;;;;;4.93;100.00;101473.78;7386611;19;20419;-52
2022/03/17 00:21:40;;;;;;;37.73;17.80;;;;;;;4.86;100.00;101472.44;7392899;19;20432;-52
2022/03/17 00:24:09;;;;;;;41.47;17.53;;;;;;;4.85;100.00;101469.75;7389267;19;20451;-48
2022/03/17 00:26:41;;;;;;;41.20;17.10;;;;;;;4.83;100.00;101466.19;7392306;19;20406;-51
2022/03/17 00:29:11;;;;;;;39.97;18.37;;;;;;;4.84;100.00;101462.88;7385636;19;20415;-48
2022/03/17 00:31:41;;;;;;;42.43;18.83;;;;;;;4.81;100.00;101458.41;7392545;19;20395;-50
2022/03/17 00:34:11;;;;;;;45.13;19.90;;;;;;;4.78;100.00;101455.63;7387069;19;20450;-50
2022/03/17 00:36:40;;;;;;;39.00;19.43;;;;;;;4.71;100.00;101451.69;7390965;19;20387;-52
2022/03/17 00:39:10;;;;;;;43.83;19.37;;;;;;;4.66;100.00;101440.22;7386731;19;20403;-53
2022/03/17 00:41:42;;;;;;;49.50;21.00;;;;;;;4.61;100.00;101433.84;7397017;19;20462;-53
2022/03/17 00:44:12;;;;;;;42.53;18.80;;;;;;;4.61;100.00;101433.84;7388902;19;20853;-51
2022/03/17 00:46:41;;;;;;;43.40;20.57;;;;;;;4.59;100.00;101425.19;7391807;19;20374;-51
2022/03/17 00:49:12;;;;;;;50.27;22.50;;;;;;;4.60;100.00;101421.84;7386976;19;20394;-50
2022/03/17 00:51:42;;;;;;;48.23;21.83;;;;;;;4.52;100.00;101411.03;7392050;19;21001;-49
2022/03/17 00:54:11;;;;;;;51.60;22.40;;;;;;;4.52;100.00;101402.50;7386149;19;20402;-48
2022/03/17 00:56:43;;;;;;;52.63;23.50;;;;;;;4.58;100.00;101385.94;7392428;19;20396;-49
2022/03/17 00:59:14;;;;;;;54.10;24.13;;;;;;;4.52;100.00;101371.81;7387054;19;20419;-48
2022/03/17 01:01:43;;;;;;;57.17;22.97;;;;;;;4.50;100.00;101373.38;7394574;19;20392;-51
2022/03/17 01:04:13;;;;;;;51.50;23.40;;;;;;;4.50;100.00;101375.94;7392590;19;20434;-53
2022/03/17 01:06:43;;;;;;;52.17;23.13;;;;;;;4.44;100.00;101369.59;7398749;19;21017;-51
2022/03/17 01:09:12;;;;;;;60.33;26.77;;;;;;;4.67;100.00;101365.31;7392956;19;21043;-52
2022/03/17 01:11:45;;;;;;;58.20;25.77;;;;;;;4.88;100.00;101356.59;7402099;19;20394;-54
2022/03/17 01:14:14;;;;;;;57.93;23.10;;;;;;;5.34;100.00;101370.19;7394190;19;20961;-51
2022/03/17 01:16:44;;;;;;;62.57;30.27;;;;;;;5.13;100.00;101366.97;7396914;19;20400;-51
2022/03/17 01:19:14;;;;;;;51.40;22.87;;;;;;;5.05;100.00;101365.50;7389617;19;20997;-49
2022/03/17 01:21:43;;;;;;;55.23;26.60;;;;;;;4.95;100.00;101372.50;7398444;19;20386;-52
2022/03/17 01:24:13;;;;;;;58.43;27.13;;;;;;;4.76;100.00;101377.03;7392869;19;20473;-52
2022/03/17 01:26:45;;;;;;;55.13;25.00;;;;;;;4.61;100.00;101375.06;7400668;19;20388;-51
2022/03/17 01:29:17;;;;;;;52.00;23.63;;;;;;;4.71;100.00;101366.44;7389250;19;20427;-54
2022/03/17 01:31:47;;;;;;;57.07;25.13;;;;;;;4.65;100.00;101369.41;7395174;19;20375;-49
2022/03/17 01:34:17;;;;;;;57.83;25.80;;;;;;;4.70;100.00;101365.56;7390198;19;20429;-51
2022/03/17 01:36:47;;;;;;;73.30;29.60;;;;;;;4.62;100.00;101352.97;7393857;19;20388;-54
2022/03/17 01:39:16;;;;;;;61.23;27.03;;;;;;;4.61;100.00;101340.97;7391051;19;20407;-49
2022/03/17 01:41:48;;;;;;;65.43;28.40;;;;;;;4.59;100.00;101335.72;7394947;19;20399;-51
2022/03/17 01:44:18;;;;;;;64.73;27.00;;;;;;;4.59;100.00;101338.28;7389658;19;20443;-49
2022/03/17 01:49:29;;;;;;;57.20;25.33;;;;;;;4.55;100.00;101336.25;7389873;19;20419;-50
2022/03/17 01:51:59;;;;;;;61.03;26.30;;;;;;;4.53;100.00;101327.59;7394848;19;20411;-50
2022/03/17 01:54:28;;;;;;;58.30;26.30;;;;;;;4.58;100.00;101328.84;7390243;19;20442;-50
2022/03/17 01:57:10;;;;;;;66.90;28.50;;;;;;;4.63;100.00;101316.41;7394197;19;20459;-49
2022/03/17 01:59:41;;;;;;;64.70;27.87;;;;;;;4.65;100.00;101323.41;7390662;19;20775;-50
2022/03/17 02:02:12;;;;;;;72.83;32.40;;;;;;;4.73;100.00;101314.63;7395228;19;20380;-50
2022/03/17 02:04:43;;;;;;;63.30;26.90;;;;;;;4.66;100.00;101312.41;7387781;19;20409;-49
2022/03/17 02:07:14;;;;;;;67.30;27.70;;;;;;;4.64;100.00;101313.97;7394648;19;20702;-51
2022/03/17 02:09:45;;;;;;;70.90;30.00;;;;;;;4.63;100.00;101304.53;7389960;19;20831;-51
2022/03/17 02:15:01;;;;;;;61.93;27.00;;;;;;;4.53;100.00;101287.59;7392172;19;20757;-53
2022/03/17 02:17:32;;;;;;;58.70;28.80;;;;;;;4.54;100.00;101293.59;7393540;19;21044;-51
2022/03/17 02:20:03;;;;;;;69.63;29.87;;;;;;;4.50;100.00;101282.25;7393402;19;20442;-48
2022/03/17 02:22:32;;;;;;;56.50;24.90;;;;;;;4.45;100.00;101276.81;7391212;19;20380;-50
2022/03/17 02:27:49;;;;;;;61.27;25.70;;;;;;;4.45;100.00;101256.38;7391386;19;20363;-53
2022/03/17 02:30:20;;;;;;;58.20;26.10;;;;;;;4.51;100.00;101255.91;7394606;19;20728;-51
2022/03/17 02:32:50;;;;;;;63.80;26.47;;;;;;;4.45;100.00;101258.00;7390686;19;20365;-52
2022/03/17 02:35:23;;;;;;;62.83;30.00;;;;;;;4.46;100.00;101240.25;7397947;19;20418;-53
2022/03/17 02:37:54;;;;;;;61.07;28.10;;;;;;;4.49;100.00;101237.03;7389740;19;20387;-52
2022/03/17 02:40:27;;;;;;;59.80;29.43;;;;;;;4.44;100.00;101230.69;7395465;19;20924;-48
2022/03/17 02:42:57;;;;;;;59.83;27.77;;;;;;;4.39;100.00;101237.13;7392415;19;20417;-49
2022/03/17 02:45:27;;;;;;;65.40;29.20;;;;;;;4.43;100.00;101240.03;7387691;19;20413;-53
2022/03/17 02:47:56;;;;;;;66.70;30.07;;;;;;;4.43;100.00;101234.94;7389055;19;20462;-50
2022/03/17 02:50:27;;;;;;;63.80;26.43;;;;;;;4.39;100.00;101227.81;7395624;19;20388;-52
2022/03/17 02:52:56;;;;;;;64.40;28.70;;;;;;;4.40;100.00;101224.47;7389709;19;20415;-53
2022/03/17 02:55:28;;;;;;;63.97;30.07;;;;;;;4.39;100.00;101216.66;7393813;19;20494;-52
2022/03/17 02:57:58;;;;;;;71.63;31.40;;;;;;;4.46;100.00;101221.47;7387896;19;20405;-49
2022/03/17 03:00:27;;;;;;;66.43;29.97;;;;;;;4.49;100.00;101231.03;7394748;19;20384;-51
2022/03/17 03:02:57;;;;;;;66.47;28.60;;;;;;;4.58;100.00;101218.94;7391354;19;20454;-51
2022/03/17 03:05:28;;;;;;;60.70;28.37;;;;;;;4.49;100.00;101224.25;7393439;19;20407;-54
2022/03/17 03:07:57;;;;;;;74.73;31.47;;;;;;;4.58;100.00;101226.59;7390173;19;20413;-50
2022/03/17 03:10:29;;;;;;;63.50;30.50;;;;;;;4.55;100.00;101218.69;7394978;19;20398;-53
2022/03/17 03:12:59;;;;;;;67.20;30.53;;;;;;;4.57;100.00;101227.38;7387988;19;20453;-50
2022/03/17 03:15:29;;;;;;;66.37;30.20;;;;;;;4.59;100.00;101230.94;7392900;19;20412;-52
2022/03/17 03:17:58;;;;;;;60.50;28.60;;;;;;;4.51;100.00;101222.69;7389031;19;20414;-53
2022/03/17 03:20:28;;;;;;;67.13;31.43;;;;;;;4.53;100.00;101215.16;7395213;19;20391;-50
2022/03/17 03:22:57;;;;;;;68.67;31.57;;;;;;;4.48;100.00;101219.94;7385989;19;20413;-50
2022/03/17 03:25:30;;;;;;;65.67;29.63;;;;;;;4.50;100.00;101214.94;7390207;19;20757;-54
2022/03/17 03:27:59;;;;;;;68.47;30.67;;;;;;;4.44;100.00;101203.47;7388310;19;20425;-51
2022/03/17 03:30:28;;;;;;;63.97;30.43;;;;;;;4.50;100.00;101212.38;7394212;19;20744;-50
2022/03/17 03:32:58;;;;;;;67.20;30.27;;;;;;;4.46;100.00;101208.69;7389728;19;20406;-47
2022/03/17 03:38:10;;;;;;;79.57;36.07;;;;;;;4.51;100.00;101201.38;7385128;19;20415;-50
2022/03/17 03:40:42;;;;;;;68.70;31.10;;;;;;;4.55;100.00;101194.03;7394037;19;20902;-51
2022/03/17 03:43:11;;;;;;;69.23;29.33;;;;;;;4.57;100.00;101191.59;7387273;19;20395;-53
2022/03/17 03:45:41;;;;;;;68.07;31.30;;;;;;;4.63;100.00;101192.06;7392333;19;20380;-51
2022/03/17 03:48:10;;;;;;;80.47;36.63;;;;;;;4.62;100.00;101190.28;7389488;19;20422;-47
2022/03/17 03:50:40;;;;;;;63.13;31.03;;;;;;;4.63;100.00;101192.06;7393846;19;20395;-53
2022/03/17 03:53:09;;;;;;;71.00;31.80;;;;;;;4.69;100.00;101183.94;7389084;19;20399;-48
2022/03/17 03:55:41;;;;;;;64.70;31.10;;;;;;;4.62;100.00;101189.38;7392294;19;20411;-50
2022/03/17 03:58:11;;;;;;;65.67;32.40;;;;;;;4.71;100.00;101192.59;7386113;19;20423;-50
2022/03/17 04:00:41;;;;;;;65.27;31.30;;;;;;;4.71;100.00;101184.91;7393595;19;20369;-54
2022/03/17 04:03:11;;;;;;;68.60;32.67;;;;;;;4.69;100.00;101192.50;7389242;19;20406;-52
2022/03/17 04:05:41;;;;;;;68.97;31.83;;;;;;;4.73;100.00;101196.16;7391613;19;20395;-51
2022/03/17 04:08:10;;;;;;;67.83;32.50;;;;;;;4.84;100.00;101187.59;7388713;19;20756;-53
2022/03/17 04:10:42;;;;;;;66.87;31.13;;;;;;;4.83;100.00;101202.84;7392330;19;20391;-51
2022/03/17 04:13:12;;;;;;;65.63;31.13;;;;;;;4.84;100.00;101196.94;7390715;19;20419;-49
2022/03/17 04:15:41;;;;;;;70.60;32.70;;;;;;;4.82;100.00;101204.47;7391381;19;20961;-49
2022/03/17 04:18:11;;;;;;;67.03;30.37;;;;;;;4.78;100.00;101204.16;7386542;19;20773;-50
2022/03/17 04:20:40;;;;;;;73.30;32.37;;;;;;;4.85;100.00;101199.59;7393137;19;20433;-54
2022/03/17 04:23:09;;;;;;;64.40;31.43;;;;;;;4.86;100.00;101197.91;7383974;19;20415;-52
2022/03/17 04:25:41;;;;;;;72.30;32.60;;;;;;;4.85;100.00;101196.16;7390892;19;20404;-53
2022/03/17 04:28:11;;;;;;;67.03;31.30;;;;;;;4.84;100.00;101197.84;7388345;19;20431;-52
2022/03/17 04:30:40;;;;;;;64.73;31.10;;;;;;;4.86;100.00;101200.47;7392818;19;20394;-54
2022/03/17 04:33:10;;;;;;;59.13;28.77;;;;;;;4.85;100.00;101189.38;7388696;19;20407;-54
2022/03/17 04:35:39;;;;;;;69.13;31.50;;;;;;;4.85;100.00;101188.47;7390739;19;20418;-51
2022/03/17 04:38:09;;;;;;;65.20;31.67;;;;;;;4.86;100.00;101188.59;7395945;19;20405;-52
2022/03/17 04:40:46;;;;;;;68.10;35.27;;;;;;;4.89;100.00;101192.13;7400037;19;20400;-54
2022/03/17 04:43:17;;;;;;;65.63;29.13;;;;;;;4.87;100.00;101192.03;7398434;19;20747;-48
2022/03/17 04:45:46;;;;;;;66.97;33.63;;;;;;;4.96;100.00;101194.34;7397287;19;20415;-50
2022/03/17 04:48:17;;;;;;;66.10;32.20;;;;;;;4.88;100.00;101198.94;7395237;19;20499;-53
2022/03/17 04:50:46;;;;;;;63.30;31.03;;;;;;;4.88;100.00;101204.06;7398600;19;20379;-52
2022/03/17 04:53:29;;;;;;;76.80;36.43;;;;;;;4.90;100.00;101202.50;7395779;19;20490;-53
2022/03/17 04:56:03;;;;;;;69.50;32.50;;;;;;;4.93;100.00;101202.69;7396857;19;20418;-49
2022/03/17 04:58:34;;;;;;;76.03;34.33;;;;;;;4.96;100.00;101196.91;7393134;19;20427;-49
2022/03/17 05:01:04;;;;;;;70.67;35.00;;;;;;;4.90;100.00;101205.03;7398908;19;20911;-52
2022/03/17 05:03:34;;;;;;;70.53;32.40;;;;;;;4.96;100.00;101202.94;7391629;19;20445;-49
2022/03/17 05:06:05;;;;;;;69.80;33.83;;;;;;;4.96;100.00;101202.94;7396644;19;20419;-53
2022/03/17 05:08:36;;;;;;;69.00;33.30;;;;;;;4.94;100.00;101201.94;7394943;19;20404;-53
2022/03/17 05:11:09;;;;;;;64.37;30.67;;;;;;;4.90;100.00;101204.13;7399172;19;20732;-52
2022/03/17 05:13:40;;;;;;;69.77;33.13;;;;;;;4.90;100.00;101194.81;7395143;19;20403;-52
2022/03/17 05:16:10;;;;;;;67.13;31.60;;;;;;;4.96;100.00;101208.03;7400157;19;20419;-49
2022/03/17 05:18:39;;;;;;;69.40;32.40;;;;;;;4.87;100.00;101194.56;7393628;19;20743;-53
2022/03/17 05:21:09;;;;;;;66.37;33.20;;;;;;;4.92;100.00;101207.72;7398716;19;20753;-52
2022/03/17 05:23:38;;;;;;;66.00;31.00;;;;;;;4.96;100.00;101202.94;7395790;19;20394;-50
2022/03/17 05:26:11;;;;;;;68.60;35.03;;;;;;;4.93;100.00;101202.69;7395514;19;20403;-51
2022/03/17 05:28:40;;;;;;;74.17;34.40;;;;;;;4.97;100.00;101198.72;7393797;19;20415;-48
2022/03/17 05:31:09;;;;;;;66.90;32.00;;;;;;;5.05;100.00;101191.56;7398380;19;20387;-51
2022/03/17 05:33:39;;;;;;;67.50;32.63;;;;;;;5.39;100.00;101199.09;7394311;19;20395;-51
2022/03/17 05:36:09;;;;;;;75.80;36.00;;;;;;;5.76;100.00;101195.59;7394986;19;20425;-49
2022/03/17 05:38:38;;;;;;;88.17;38.80;;;;;;;5.73;100.00;101221.88;7392203;19;20431;-51
2022/03/17 05:41:10;;;;;;;81.27;39.60;;;;;;;5.65;100.00;101235.84;7402702;19;20399;-47
2022/03/17 05:43:40;;;;;;;72.77;35.67;;;;;;;5.47;100.00;101235.41;7392347;19;20414;-50
2022/03/17 05:46:09;;;;;;;68.23;31.50;;;;;;;5.30;100.00;101236.81;7395359;19;20427;-49
2022/03/17 05:48:40;;;;;;;65.80;30.60;;;;;;;5.08;100.00;101227.63;7391466;19;20402;-50
2022/03/17 05:51:10;;;;;;;77.23;36.70;;;;;;;5.11;100.00;101223.59;7397359;19;20380;-54
2022/03/17 05:53:39;;;;;;;70.03;36.07;;;;;;;5.12;100.00;101230.50;7393787;19;20415;-51
2022/03/17 05:56:15;;;;;;;69.13;32.70;;;;;;;5.08;100.00;101231.03;7395020;19;20427;-50
2022/03/17 05:58:45;;;;;;;69.00;33.17;;;;;;;5.05;100.00;101235.03;7386940;19;20454;-50
2022/03/17 06:01:15;;;;;;;108.33;46.63;;;;;;;5.17;100.00;101235.94;7397252;19;20403;-50
2022/03/17 06:03:44;;;;;;;75.33;36.47;;;;;;;5.15;100.00;101245.19;7392644;19;20404;-48
2022/03/17 06:06:14;;;;;;;73.67;35.80;;;;;;;5.19;100.00;101252.28;7394629;19;20415;-52
2022/03/17 06:08:44;;;;;;;67.90;34.20;;;;;;;5.22;100.00;101247.38;7384720;19;20427;-50
2022/03/17 06:11:16;;;;;;;62.53;31.03;;;;;;;5.16;100.00;101252.06;7401293;19;20415;-51
2022/03/17 06:13:46;;;;;;;78.63;32.67;;;;;;;5.16;100.00;101248.59;7388661;19;20423;-52
2022/03/17 06:16:16;;;;;;;71.30;34.33;;;;;;;5.20;100.00;101253.16;7394110;19;20498;-52
2022/03/17 06:18:46;;;;;;;75.03;36.27;;;;;;;5.22;100.00;101251.59;7389844;19;20455;-51
2022/03/17 06:21:16;;;;;;;71.40;34.80;;;;;;;5.20;100.00;101248.97;7396594;19;20367;-51
2022/03/17 06:23:45;;;;;;;73.30;33.90;;;;;;;5.22;100.00;101242.28;7390881;19;20419;-51
2022/03/17 06:26:17;;;;;;;92.23;45.33;;;;;;;5.51;100.00;101235.78;7393782;19;20431;-49
2022/03/17 06:28:47;;;;;;;76.73;37.37;;;;;;;5.98;100.00;101227.78;7391253;19;20486;-53
2022/03/17 06:31:17;;;;;;;68.17;36.57;;;;;;;5.80;100.00;101239.44;7400175;19;20937;-49
2022/03/17 06:33:47;;;;;;;61.13;32.07;;;;;;;5.98;100.00;101251.75;7392260;19;20408;-52
2022/03/17 06:36:16;;;;;;;69.50;36.00;;;;;;;6.07;100.00;101259.19;7396061;19;20427;-52
2022/03/17 06:38:46;;;;;;;78.40;35.03;;;;;;;5.86;100.00;101276.50;7387836;19;20446;-52
2022/03/17 06:41:19;;;;;;;65.90;34.33;;;;;;;6.04;100.00;101270.13;7395564;19;20399;-50
2022/03/17 06:43:48;;;;;;;67.13;34.23;;;;;;;6.32;100.00;101271.97;7389243;19;20398;-52
2022/03/17 06:46:18;;;;;;;67.10;35.50;;;;;;;6.40;100.00;101284.44;7395786;19;20382;-50
2022/03/17 06:48:47;;;;;;;80.13;39.10;;;;;;;6.30;100.00;101303.44;7390909;19;20448;-52
2022/03/17 06:51:18;;;;;;;78.53;37.90;;;;;;;6.15;100.00;101303.28;7393247;19;20468;-55
2022/03/17 06:53:47;;;;;;;81.80;40.63;;;;;;;6.12;100.00;101306.53;7390040;19;20411;-52
2022/03/17 06:56:19;;;;;;;74.00;37.20;;;;;;;6.54;100.00;101305.88;7393524;19;20767;-51
2022/03/17 06:58:49;;;;;;;74.67;36.90;;;;;;;6.29;100.00;101328.19;7385267;19;20428;-55
2022/03/17 07:01:19;;;;;;;107.53;49.60;;;;;;;6.41;100.00;101329.81;7396078;19;20391;-50
2022/03/17 07:03:49;;;;;;;72.60;35.57;;;;;;;6.17;100.00;101342.72;7388887;19;20781;-48
2022/03/17 07:06:19;;;;;;;66.27;33.07;;;;;;;6.00;100.00;101350.06;7395084;19;20385;-49
2022/03/17 07:08:49;;;;;;;66.43;35.90;;;;;;;5.93;100.00;101335.97;7386018;19;20431;-50
2022/03/17 07:11:22;;;;;;;63.33;33.47;;;;;;;5.93;100.00;101333.41;7394876;19;20384;-51
2022/03/17 07:13:51;;;;;;;70.33;34.93;;;;;;;6.00;100.00;101338.94;7387704;19;20453;-51
2022/03/17 07:16:21;;;;;;;65.37;35.37;;;;;;;5.99;100.00;101330.38;7397749;19;20735;-54
2022/03/17 07:18:50;;;;;;;84.70;37.10;;;;;;;5.98;100.00;101337.94;7389239;19;20435;-52
2022/03/17 07:21:21;;;;;;;71.03;35.73;;;;;;;5.98;100.00;101331.16;7395901;19;20400;-53
2022/03/17 07:23:50;;;;;;;67.93;35.63;;;;;;;6.08;100.00;101325.03;7389762;19;20413;-53
2022/03/17 07:26:22;;;;;;;73.23;36.20;;;;;;;6.05;100.00;101320.56;7393732;19;20395;-53
2022/03/17 07:28:53;;;;;;;73.00;35.00;;;;;;;6.06;100.00;101324.91;7389320;19;20416;-54
2022/03/17 07:31:24;;;;;;;66.10;34.37;;;;;;;6.09;100.00;101329.34;7398680;19;20391;-49
2022/03/17 07:33:54;;;;;;;67.67;33.97;;;;;;;6.06;100.00;101345.41;7392695;19;20959;-53
2022/03/17 07:36:24;;;;;;;74.57;36.83;;;;;;;6.12;100.00;101349.19;7394541;19;20392;-55
2022/03/17 07:38:56;;;;;;;60.43;30.87;;;;;;;6.04;100.00;101352.09;7388600;19;20419;-53
2022/03/17 07:41:28;;;;;;;75.90;36.47;;;;;;;6.02;100.00;101352.75;7393694;19;20380;-52
2022/03/17 07:43:57;;;;;;;69.90;35.20;;;;;;;6.02;100.00;101337.38;7387895;19;20408;-53
2022/03/17 07:46:27;;;;;;;67.00;33.07;;;;;;;5.91;100.00;101329.81;7394067;19;20384;-53
2022/03/17 07:48:57;;;;;;;71.63;36.50;;;;;;;5.90;100.00;101316.94;7388644;19;20417;-52
2022/03/17 07:51:26;;;;;;;74.13;38.87;;;;;;;5.97;100.00;101319.13;7393510;19;20381;-52
2022/03/17 07:53:56;;;;;;;73.43;36.53;;;;;;;6.00;100.00;101313.34;7387635;19;20418;-48
2022/03/17 07:56:28;;;;;;;72.93;37.27;;;;;;;6.10;100.00;101307.19;7393155;19;20396;-49
2022/03/17 07:58:57;;;;;;;67.43;35.77;;;;;;;6.08;100.00;101308.00;7388797;19;20411;-53
2022/03/17 08:01:27;;;;;;;74.10;35.13;;;;;;;6.11;100.00;101301.28;7393216;19;20396;-47
2022/03/17 08:03:57;;;;;;;91.30;42.60;;;;;;;6.18;100.00;101309.50;7386321;19;20429;-48
2022/03/17 08:06:28;;;;;;;73.20;35.43;;;;;;;6.27;100.00;101309.25;7392867;19;20416;-50
2022/03/17 08:08:58;;;;;;;88.33;38.70;;;;;;;6.29;100.00;101317.94;7390225;19;20513;-52
2022/03/17 08:11:30;;;;;;;85.07;40.23;;;;;;;6.24;100.00;101329.53;7391928;19;20399;-53
2022/03/17 08:13:59;;;;;;;77.87;38.67;;;;;;;6.27;100.00;101324.63;7387857;19;20446;-54
2022/03/17 08:16:29;;;;;;;77.07;37.60;;;;;;;6.29;100.00;101335.88;7392877;19;20392;-48
2022/03/17 08:18:59;;;;;;;71.73;35.97;;;;;;;6.27;100.00;101329.75;7386078;19;20428;-53
2022/03/17 08:21:28;;;;;;;69.53;35.37;;;;;;;6.21;100.00;101340.47;7394285;19;20415;-49
2022/03/17 08:23:58;;;;;;;68.13;34.70;;;;;;;6.26;100.00;101348.44;7390030;19;20775;-50
2022/03/17 08:26:30;;;;;;;69.13;34.83;;;;;;;6.21;100.00;101349.84;7392154;19;20390;-50
2022/03/17 08:29:00;;;;;;;77.10;35.77;;;;;;;6.26;100.00;101348.44;7383722;19;20422;-52
2022/03/17 08:31:30;;;;;;;71.63;37.17;;;;;;;6.28;100.00;101357.16;7392576;19;20447;-52
2022/03/17 08:34:00;;;;;;;66.83;34.00;;;;;;;6.29;100.00;101358.94;7386656;19;20420;-51
2022/03/17 08:36:29;;;;;;;72.37;34.67;;;;;;;6.31;100.00;101361.59;7392182;19;20484;-48
2022/03/17 08:38:59;;;;;;;79.20;39.07;;;;;;;6.36;100.00;101367.91;7386282;19;20408;-48
2022/03/17 08:41:31;;;;;;;70.97;36.67;;;;;;;6.35;100.00;101369.59;7390486;19;20407;-49
2022/03/17 08:44:01;;;;;;;71.60;37.43;;;;;;;6.33;100.00;101381.44;7385863;19;20407;-52
2022/03/17 08:49:22;;;;;;;68.30;34.03;;;;;;;6.29;100.00;101384.56;7385750;19;20412;-53
2022/03/17 08:51:53;;;;;;;68.30;35.73;;;;;;;6.29;100.00;101384.56;7391700;19;20392;-51
2022/03/17 08:54:24;;;;;;;66.83;34.23;;;;;;;6.31;100.00;101397.50;7384482;19;20462;-50
2022/03/17 08:56:59;;;;;;;69.47;37.57;;;;;;;6.35;100.00;101395.25;7391695;19;20456;-49
2022/03/17 08:59:29;;;;;;;72.00;35.27;;;;;;;6.30;100.00;101406.84;7384598;19;20451;-48
2022/03/17 09:01:58;;;;;;;72.93;35.50;;;;;;;6.26;100.00;101404.84;7392540;19;20391;-52
2022/03/17 09:04:28;;;;;;;73.30;37.70;;;;;;;6.24;100.00;101393.59;7384857;19;20411;-51
2022/03/17 09:06:59;;;;;;;79.90;41.30;;;;;;;6.25;100.00;101386.81;7391695;19;20388;-49
2022/03/17 09:09:29;;;;;;;69.07;36.30;;;;;;;6.20;100.00;101381.34;7385839;19;20427;-49
2022/03/17 09:12:05;;;;;;;71.50;37.40;;;;;;;6.17;100.00;101370.91;7392888;19;20396;-53
2022/03/17 09:14:36;;;;;;;75.20;38.00;;;;;;;6.13;100.00;101372.34;7383956;19;20934;-51
2022/03/17 09:17:06;;;;;;;76.10;37.73;;;;;;;6.17;100.00;101355.53;7391425;19;20911;-50
2022/03/17 09:19:37;;;;;;;75.30;39.60;;;;;;;6.12;100.00;101349.19;7384092;19;20411;-51
2022/03/17 09:22:07;;;;;;;77.93;37.70;;;;;;;6.09;100.00;101342.16;7394724;19;20750;-48
2022/03/17 09:24:37;;;;;;;77.47;40.37;;;;;;;6.12;100.00;101334.72;7390110;19;20420;-47
2022/03/17 09:27:09;;;;;;;87.73;42.63;;;;;;;6.00;100.00;101334.69;7398301;19;20398;-50
2022/03/17 09:29:40;;;;;;;74.40;37.63;;;;;;;5.99;100.00;101330.38;7390835;19;20425;-51
2022/03/17 09:32:10;;;;;;;75.50;38.07;;;;;;;5.93;100.00;101322.25;7398816;19;20436;-53
2022/03/17 09:34:40;;;;;;;72.87;38.40;;;;;;;5.90;100.00;101314.38;7392948;19;21342;-54
2022/03/17 09:37:09;;;;;;;116.70;53.50;;;;;;;5.89;100.00;101290.41;7398106;19;20394;-51
2022/03/17 09:39:46;;;;;;;73.27;37.80;;;;;;;5.87;100.00;101293.66;7393454;19;20959;-53
2022/03/17 09:42:20;;;;;;;78.37;39.23;;;;;;;5.84;100.00;101288.34;7397445;19;20455;-53
2022/03/17 09:44:52;;;;;;;75.87;39.90;;;;;;;5.91;100.00;101278.59;7393172;19;20413;-53
2022/03/17 09:47:24;;;;;;;82.17;41.97;;;;;;;5.94;100.00;101281.38;7397499;19;20474;-52
2022/03/17 09:49:54;;;;;;;80.97;40.80;;;;;;;5.89;100.00;101272.50;7392144;19;20847;-54
2022/03/17 09:52:24;;;;;;;87.10;40.80;;;;;;;5.85;100.00;101259.38;7397292;19;20735;-52
2022/03/17 09:54:54;;;;;;;86.07;42.77;;;;;;;5.85;100.00;101254.25;7391641;19;20794;-49
2022/03/17 09:57:27;;;;;;;80.00;40.27;;;;;;;5.76;100.00;101254.50;7397270;19;20388;-51
2022/03/17 09:59:58;;;;;;;84.70;40.50;;;;;;;5.85;100.00;101247.44;7395840;19;20409;-51
2022/03/17 10:02:28;;;;;;;82.00;40.77;;;;;;;5.87;100.00;101237.31;7397542;19;20388;-51
2022/03/17 10:04:58;;;;;;;82.63;41.93;;;;;;;5.69;100.00;101232.69;7394899;19;20409;-49
2022/03/17 10:07:28;;;;;;;81.60;38.77;;;;;;;5.75;100.00;101234.81;7396757;19;20405;-51
2022/03/17 10:09:57;;;;;;;86.47;40.87;;;;;;;5.71;100.00;101231.16;7395245;19;20490;-51
2022/03/17 10:12:30;;;;;;;83.20;41.07;;;;;;;5.65;100.00;101230.72;7396363;19;20393;-50
2022/03/17 10:15:01;;;;;;;81.60;39.40;;;;;;;5.70;100.00;101226.81;7393748;19;20411;-52
2022/03/17 10:17:34;;;;;;;83.90;40.67;;;;;;;5.70;100.00;101223.34;7398449;19;20726;-53
2022/03/17 10:20:15;;;;;;;83.53;42.20;;;;;;;5.73;100.00;101216.75;7394332;19;20408;-50
2022/03/17 10:22:49;;;;;;;81.20;41.97;;;;;;;5.77;100.00;101212.75;7392544;19;21066;-53
2022/03/17 10:25:20;;;;;;;86.17;41.57;;;;;;;5.75;100.00;101209.19;7394700;19;20408;-52
2022/03/17 10:27:54;;;;;;;93.67;42.83;;;;;;;5.78;100.00;101204.25;7392088;19;20459;-51
2022/03/17 10:30:27;;;;;;;96.83;44.73;;;;;;;5.84;100.00;101191.00;7395687;19;20380;-53
2022/03/17 10:32:58;;;;;;;88.00;41.87;;;;;;;5.79;100.00;101196.69;7389243;19;20411;-53
2022/03/17 10:35:29;;;;;;;81.47;40.40;;;;;;;5.78;100.00;101184.69;7396331;19;20419;-53
2022/03/17 10:37:59;;;;;;;86.70;42.03;;;;;;;5.78;100.00;101179.56;7387292;19;20402;-51
2022/03/17 10:40:32;;;;;;;84.23;36.10;;;;;;;5.78;100.00;101176.09;7395609;19;20936;-53
2022/03/17 10:43:24;;;;;;;76.67;34.53;;;;;;;5.74;100.00;101174.13;7391424;19;20399;-52
2022/03/17 10:46:07;;;;;;;80.63;37.17;;;;;;;5.78;100.00;101173.53;7393867;19;20395;-52
2022/03/17 10:48:37;;;;;;;87.17;40.23;;;;;;;5.80;100.00;101172.00;7390117;19;20415;-53
2022/03/17 10:51:06;;;;;;;89.07;42.47;;;;;;;5.78;100.00;101169.31;7394944;19;20914;-54
2022/03/17 10:53:36;;;;;;;95.53;44.20;;;;;;;5.79;100.00;101163.41;7391908;19;20421;-54
2022/03/17 10:56:12;;;;;;;70.47;32.23;;;;;;;5.78;100.00;101163.28;7393295;19;20426;-47
2022/03/17 10:58:50;;;;;;;81.33;37.60;;;;;;;5.81;100.00;101158.41;7390983;19;20419;-48
2022/03/17 11:01:42;;;;;;;81.83;34.80;;;;;;;5.78;100.00;101151.41;7394687;19;20384;-52
2022/03/17 11:04:13;;;;;;;76.37;33.10;;;;;;;5.82;100.00;101155.03;7389356;19;20459;-50
2022/03/17 11:06:43;;;;;;;77.33;38.10;;;;;;;5.84;100.00;101160.28;7394006;19;20463;-51
2022/03/17 11:09:12;;;;;;;55.03;24.30;;;;;;;5.83;100.00;101161.06;7389851;19;20474;-52
2022/03/17 11:11:44;;;;;;;79.20;36.77;;;;;;;5.84;100.00;101170.53;7396173;19;20403;-53
2022/03/17 11:14:17;;;;;;;66.07;28.43;;;;;;;5.83;100.00;101171.31;7384329;19;20490;-51
2022/03/17 11:16:50;;;;;;;48.13;21.03;;;;;;;5.78;100.00;101178.66;7394288;19;20388;-53
2022/03/17 11:19:22;;;;;;;36.00;16.33;;;;;;;5.67;100.00;101195.84;7389988;19;20411;-55
2022/03/17 11:22:09;;;;;;;42.60;17.53;;;;;;;5.67;100.00;101188.19;7396058;19;20408;-51
2022/03/17 11:24:40;;;;;;;40.03;15.40;;;;;;;5.61;100.00;101195.44;7388857;19;20431;-53
2022/03/17 11:27:12;;;;;;;33.77;14.73;;;;;;;5.62;100.00;101197.22;7394229;19;20758;-50
2022/03/17 11:29:47;;;;;;;27.17;12.43;;;;;;;5.58;100.00;101198.66;7389603;19;20422;-51
2022/03/17 11:32:28;;;;;;;32.40;12.07;;;;;;;5.65;100.00;101205.13;7393602;19;20535;-52
2022/03/17 11:35:19;;;;;;;18.87;9.13;;;;;;;5.61;100.00;101205.69;7396079;19;20474;-50
2022/03/17 11:37:49;;;;;;;28.47;12.07;;;;;;;5.65;100.00;101202.56;7387553;19;20391;-55
2022/03/17 11:40:21;;;;;;;27.20;10.50;;;;;;;5.58;100.00;101215.72;7393416;19;20409;-54